createdAt,value
2018-03-15T00:02:00.169Z,8.40
2018-03-15T00:04:35.405Z,8.70
2018-03-15T00:07:04.491Z,9.00
2018-03-15T00:09:33.697Z,9.03
2018-03-15T00:12:02.839Z,9.57
2018-03-15T00:14:32.250Z,10.30
2018-03-15T00:17:01.600Z,12.80
2018-03-15T00:19:30.953Z,13.00
2018-03-15T00:22:00.407Z,13.57
2018-03-15T00:24:29.525Z,8.73
2018-03-15T00:26:58.685Z,9.17
2018-03-15T00:29:28.146Z,8.33
2018-03-15T00:31:57.375Z,7.37
2018-03-15T00:34:26.329Z,6.70
2018-03-15T00:36:55.851Z,7.27
2018-03-15T00:39:25.255Z,8.30
2018-03-15T00:41:54.325Z,7.47
2018-03-15T00:44:23.658Z,8.80
2018-03-15T00:46:52.829Z,6.90
2018-03-15T00:49:21.940Z,8.63
2018-03-15T00:51:51.483Z,9.77
2018-03-15T00:54:20.482Z,7.37
2018-03-15T00:56:49.781Z,8.13
2018-03-15T00:59:19.014Z,8.47
2018-03-15T01:01:48.159Z,8.40
2018-03-15T01:04:17.274Z,8.57
2018-03-15T01:06:46.698Z,8.20
2018-03-15T01:09:16.010Z,10.43
2018-03-15T01:11:45.000Z,7.93
2018-03-15T01:14:14.174Z,8.53
2018-03-15T01:16:43.165Z,8.00
2018-03-15T01:19:12.233Z,9.03
2018-03-15T01:21:41.018Z,8.00
2018-03-15T01:24:10.357Z,9.57
2018-03-15T01:26:39.695Z,7.83
2018-03-15T01:29:08.785Z,7.07
2018-03-15T01:31:37.985Z,7.73
2018-03-15T01:34:07.259Z,7.23
2018-03-15T01:36:36.557Z,7.30
2018-03-15T01:39:05.691Z,6.73
2018-03-15T01:41:34.993Z,6.73
2018-03-15T01:44:04.144Z,6.13
2018-03-15T01:46:33.645Z,8.80
2018-03-15T01:49:02.902Z,6.57
2018-03-15T01:51:32.097Z,7.20
2018-03-15T01:54:01.448Z,7.27
2018-03-15T01:56:30.999Z,7.90
2018-03-15T01:59:00.029Z,6.60
2018-03-15T02:01:29.246Z,7.13
2018-03-15T02:03:58.446Z,6.83
2018-03-15T02:06:27.541Z,7.53
2018-03-15T02:08:56.661Z,7.60
2018-03-15T02:11:25.873Z,7.37
2018-03-15T02:13:54.825Z,10.57
2018-03-15T02:16:23.939Z,9.20
2018-03-15T02:18:52.949Z,9.00
2018-03-15T02:21:21.912Z,8.57
2018-03-15T02:23:50.934Z,10.67
2018-03-15T02:26:19.979Z,8.13
2018-03-15T02:28:49.293Z,8.60
2018-03-15T02:31:18.297Z,8.53
2018-03-15T02:33:47.238Z,10.93
2018-03-15T02:36:16.350Z,10.63
2018-03-15T02:38:45.802Z,10.50
2018-03-15T02:41:15.198Z,10.53
2018-03-15T02:43:44.647Z,9.67
2018-03-15T02:46:13.742Z,9.47
2018-03-15T02:48:42.994Z,9.97
2018-03-15T02:51:12.311Z,10.77
2018-03-15T02:53:41.841Z,12.53
2018-03-15T02:56:11.046Z,13.07
2018-03-15T02:58:40.037Z,11.43
2018-03-15T03:01:09.209Z,13.37
2018-03-15T03:03:38.494Z,12.63
2018-03-15T03:06:07.896Z,11.73
2018-03-15T03:08:37.033Z,11.17
2018-03-15T03:11:06.254Z,11.63
2018-03-15T03:13:35.697Z,11.13
2018-03-15T03:16:05.215Z,13.37
2018-03-15T03:18:34.913Z,11.80
2018-03-15T03:21:04.322Z,11.43
2018-03-15T03:23:33.523Z,10.50
2018-03-15T03:26:03.035Z,11.33
2018-03-15T03:28:32.569Z,12.47
2018-03-15T03:31:01.786Z,10.30
2018-03-15T03:33:30.870Z,10.43
2018-03-15T03:36:00.221Z,12.07
2018-03-15T03:38:29.725Z,10.80
2018-03-15T03:40:59.101Z,11.27
2018-03-15T03:43:28.079Z,10.70
2018-03-15T03:45:57.601Z,11.10
2018-03-15T03:48:27.033Z,13.13
2018-03-15T03:50:55.959Z,11.93
2018-03-15T03:53:25.180Z,12.37
2018-03-15T03:55:55.140Z,12.30
2018-03-15T03:58:24.337Z,18.77
2018-03-15T04:00:53.477Z,14.77
2018-03-15T04:03:22.668Z,14.03
2018-03-15T04:05:51.908Z,13.83
2018-03-15T04:08:21.073Z,14.60
2018-03-15T04:10:50.537Z,18.77
2018-03-15T04:13:19.881Z,15.63
2018-03-15T04:15:48.867Z,15.13
2018-03-15T04:18:18.233Z,16.40
2018-03-15T04:20:47.373Z,16.60
2018-03-15T04:23:16.465Z,16.63
2018-03-15T04:25:45.565Z,19.65
2018-03-15T04:28:14.936Z,20.43
2018-03-15T04:30:44.369Z,17.60
2018-03-15T04:33:13.729Z,18.03
2018-03-15T04:35:43.030Z,19.17
2018-03-15T04:38:12.620Z,20.83
2018-03-15T04:40:41.601Z,17.10
2018-03-15T04:43:10.937Z,17.63
2018-03-15T04:45:40.477Z,16.53
2018-03-15T04:48:09.540Z,17.17
2018-03-15T04:50:38.788Z,23.43
2018-03-15T04:53:07.929Z,23.17
2018-03-15T04:55:37.080Z,16.30
2018-03-15T04:58:06.380Z,18.27
2018-03-15T05:00:35.430Z,14.77
2018-03-15T05:03:04.769Z,19.17
2018-03-15T05:05:33.921Z,13.37
2018-03-15T05:08:03.259Z,18.55
2018-03-15T05:10:32.381Z,13.32
2018-03-15T05:13:01.358Z,16.42
2018-03-15T05:15:30.510Z,15.07
2018-03-15T05:17:59.881Z,15.70
2018-03-15T05:20:29.275Z,14.47
2018-03-15T05:22:58.717Z,14.07
2018-03-15T05:25:27.961Z,30.42
2018-03-15T05:27:57.135Z,23.73
2018-03-15T05:30:26.871Z,18.55
2018-03-15T05:32:55.985Z,14.48
2018-03-15T05:35:25.433Z,27.35
2018-03-15T05:37:54.700Z,20.03
2018-03-15T05:40:24.043Z,22.97
2018-03-15T05:42:53.066Z,17.67
2018-03-15T05:45:22.425Z,17.83
2018-03-15T05:47:52.043Z,14.77
2018-03-15T05:50:21.088Z,12.80
2018-03-15T05:52:50.549Z,13.40
2018-03-15T05:55:19.837Z,21.53
2018-03-15T05:57:49.392Z,17.03
2018-03-15T06:00:18.985Z,18.70
2018-03-15T06:02:48.041Z,20.37
2018-03-15T06:05:17.252Z,22.63
2018-03-15T06:07:46.442Z,21.50
2018-03-15T06:10:15.997Z,21.27
2018-03-15T06:12:45.359Z,19.70
2018-03-15T06:15:14.629Z,20.37
2018-03-15T06:17:44.773Z,24.07
2018-03-15T06:20:14.130Z,17.13
2018-03-15T06:22:43.313Z,17.30
2018-03-15T06:25:12.373Z,16.20
2018-03-15T06:27:41.492Z,15.10
2018-03-15T06:30:10.737Z,18.77
2018-03-15T06:32:40.215Z,17.60
2018-03-15T06:35:09.586Z,16.00
2018-03-15T06:37:38.685Z,16.00
2018-03-15T06:40:07.943Z,13.70
2018-03-15T06:42:37.311Z,16.40
2018-03-15T06:45:06.371Z,18.30
2018-03-15T06:47:35.866Z,13.53
2018-03-15T06:50:05.349Z,16.80
2018-03-15T06:52:34.883Z,11.70
2018-03-15T06:55:04.386Z,12.73
2018-03-15T06:57:33.685Z,13.53
2018-03-15T07:00:03.182Z,16.10
2018-03-15T07:02:32.614Z,22.23
2018-03-15T07:05:01.799Z,22.10
2018-03-15T07:07:31.023Z,140.63
2018-03-15T07:10:00.201Z,144.47
2018-03-15T07:12:30.722Z,19.97
2018-03-15T07:15:00.279Z,17.20
2018-03-15T07:17:30.045Z,21.17
2018-03-15T07:19:59.398Z,17.20
2018-03-15T07:22:28.650Z,16.77
2018-03-15T07:24:57.842Z,16.33
2018-03-15T07:27:27.245Z,15.43
2018-03-15T07:29:56.759Z,13.90
2018-03-15T07:32:26.313Z,21.17
2018-03-15T07:34:55.714Z,13.87
2018-03-15T07:37:25.197Z,16.90
2018-03-15T07:39:54.433Z,11.93
2018-03-15T07:42:23.938Z,12.97
2018-03-15T07:44:53.327Z,13.80
2018-03-15T07:47:22.814Z,12.70
2018-03-15T07:49:52.237Z,13.33
2018-03-15T07:52:21.554Z,13.13
2018-03-15T07:54:51.100Z,15.00
2018-03-15T07:57:20.589Z,11.80
2018-03-15T07:59:50.460Z,14.57
2018-03-15T08:02:19.601Z,11.40
2018-03-15T08:04:48.674Z,17.23
2018-03-15T08:07:17.961Z,18.87
2018-03-15T08:09:47.327Z,14.17
2018-03-15T08:12:16.607Z,14.60
2018-03-15T08:14:46.249Z,19.00
2018-03-15T08:17:15.921Z,15.07
2018-03-15T08:19:45.097Z,9.90
2018-03-15T08:22:14.321Z,11.00
2018-03-15T08:24:43.338Z,19.47
2018-03-15T08:27:12.838Z,11.50
2018-03-15T08:29:42.231Z,14.13
2018-03-15T08:32:11.417Z,17.37
2018-03-15T08:34:40.821Z,9.90
2018-03-15T08:37:09.885Z,9.67
2018-03-15T08:39:39.266Z,7.40
2018-03-15T08:42:08.526Z,7.30
2018-03-15T08:44:38.047Z,11.93
2018-03-15T08:47:07.239Z,9.60
2018-03-15T08:49:36.365Z,9.73
2018-03-15T08:52:05.666Z,7.97
2018-03-15T08:54:34.922Z,6.67
2018-03-15T08:57:04.698Z,9.57
2018-03-15T08:59:34.087Z,10.17
2018-03-15T09:02:03.298Z,8.57
2018-03-15T09:04:32.949Z,12.73
2018-03-15T09:07:02.309Z,11.50
2018-03-15T09:09:31.706Z,9.17
2018-03-15T09:12:00.853Z,8.87
2018-03-15T09:14:30.258Z,6.90
2018-03-15T09:16:59.559Z,8.20
2018-03-15T09:19:28.763Z,8.70
2018-03-15T09:21:57.922Z,8.60
2018-03-15T09:24:27.279Z,8.67
2018-03-15T09:26:56.406Z,5.00
2018-03-15T09:29:25.419Z,8.20
2018-03-15T09:31:54.581Z,4.97
2018-03-15T09:34:23.604Z,9.57
2018-03-15T09:36:53.149Z,12.20
2018-03-15T09:39:22.350Z,6.00
2018-03-15T09:41:51.909Z,10.30
2018-03-15T09:44:21.623Z,12.43
2018-03-15T09:46:51.038Z,7.80
2018-03-15T09:49:20.161Z,5.80
2018-03-15T09:51:49.194Z,7.70
2018-03-15T09:54:18.338Z,9.87
2018-03-15T09:56:47.570Z,6.30
2018-03-15T09:59:16.997Z,6.50
2018-03-15T10:01:46.575Z,6.80
2018-03-15T10:04:16.095Z,7.97
2018-03-15T10:06:45.489Z,12.37
2018-03-15T10:09:15.164Z,7.03
2018-03-15T10:11:44.381Z,6.80
2018-03-15T10:14:13.581Z,9.97
2018-03-15T10:16:43.198Z,7.13
2018-03-15T10:19:12.809Z,4.93
2018-03-15T10:21:42.156Z,5.10
2018-03-15T10:24:11.531Z,7.37
2018-03-15T10:26:40.858Z,5.57
2018-03-15T10:29:10.111Z,6.70
2018-03-15T10:31:39.431Z,4.53
2018-03-15T10:34:08.965Z,5.10
2018-03-15T10:36:38.582Z,5.80
2018-03-15T10:39:07.722Z,9.57
2018-03-15T10:41:37.271Z,9.17
2018-03-15T10:44:06.655Z,7.83
2018-03-15T10:46:36.105Z,7.57
2018-03-15T10:49:05.741Z,7.73
2018-03-15T10:51:35.049Z,5.60
2018-03-15T10:54:04.362Z,7.00
2018-03-15T10:56:33.753Z,8.47
2018-03-15T10:59:02.971Z,4.63
2018-03-15T11:01:37.963Z,7.73
2018-03-15T11:04:11.121Z,7.33
2018-03-15T11:06:41.061Z,5.77
2018-03-15T11:12:17.995Z,6.37
2018-03-15T11:14:47.157Z,8.90
2018-03-15T11:17:16.657Z,6.13
2018-03-15T11:19:46.037Z,10.77
2018-03-15T11:22:15.466Z,5.70
2018-03-15T11:24:44.709Z,2.30
2018-03-15T11:27:13.912Z,5.63
2018-03-15T11:29:43.214Z,3.87
2018-03-15T11:32:12.523Z,2.67
2018-03-15T11:34:42.279Z,5.03
2018-03-15T11:37:11.485Z,4.83
2018-03-15T11:39:40.509Z,3.07
2018-03-15T11:42:09.867Z,3.33
2018-03-15T11:44:38.869Z,3.50
2018-03-15T11:47:08.371Z,4.30
2018-03-15T11:49:37.821Z,5.63
2018-03-15T11:52:07.235Z,8.93
2018-03-15T11:54:36.373Z,4.50
2018-03-15T11:57:05.965Z,3.90
2018-03-15T11:59:35.138Z,4.27
2018-03-15T12:02:04.340Z,3.27
2018-03-15T12:04:33.566Z,3.47
2018-03-15T12:07:02.845Z,3.60
2018-03-15T12:09:32.126Z,5.37
2018-03-15T12:12:01.492Z,6.57
2018-03-15T12:14:30.997Z,5.27
2018-03-15T12:17:00.304Z,9.77
2018-03-15T12:19:29.643Z,8.53
2018-03-15T12:21:59.149Z,9.20
2018-03-15T12:24:28.575Z,5.43
2018-03-15T12:26:57.751Z,7.93
2018-03-15T12:29:27.245Z,5.57
2018-03-15T12:31:57.029Z,5.67
2018-03-15T12:34:26.265Z,6.87
2018-03-15T12:36:55.824Z,9.57
2018-03-15T12:39:25.442Z,6.73
2018-03-15T12:41:54.655Z,7.77
2018-03-15T12:44:24.702Z,9.27
2018-03-15T12:46:54.205Z,6.30
2018-03-15T12:49:23.550Z,9.00
2018-03-15T12:51:52.532Z,6.17
2018-03-15T12:54:21.701Z,8.97
2018-03-15T12:56:51.267Z,9.20
2018-03-15T12:59:20.497Z,5.77
2018-03-15T13:01:49.736Z,6.57
2018-03-15T13:04:18.699Z,6.43
2018-03-15T13:06:48.410Z,6.27
2018-03-15T13:09:17.756Z,8.93
2018-03-15T13:11:46.919Z,7.63
2018-03-15T13:14:16.109Z,10.47
2018-03-15T13:16:45.584Z,8.60
2018-03-15T13:19:15.021Z,12.37
2018-03-15T13:21:44.477Z,12.63
2018-03-15T13:24:14.039Z,11.87
2018-03-15T13:26:43.365Z,12.60
2018-03-15T13:29:13.214Z,12.30
2018-03-15T13:31:42.342Z,8.80
2018-03-15T13:34:11.754Z,11.37
2018-03-15T13:36:41.289Z,10.50
2018-03-15T13:39:20.999Z,9.03
2018-03-15T13:41:55.358Z,8.43
2018-03-15T13:44:24.627Z,8.77
2018-03-15T13:46:54.083Z,10.47
2018-03-15T13:49:23.525Z,12.30
2018-03-15T13:51:52.724Z,11.70
2018-03-15T13:54:22.031Z,10.73
2018-03-15T13:56:51.117Z,11.13
2018-03-15T13:59:20.185Z,13.00
2018-03-15T14:01:49.313Z,14.00
2018-03-15T14:04:18.776Z,12.20
2018-03-15T14:06:48.053Z,12.63
2018-03-15T14:09:17.457Z,10.23
2018-03-15T14:11:46.513Z,10.87
2018-03-15T14:14:15.567Z,13.27
2018-03-15T14:16:44.647Z,9.47
2018-03-15T14:19:13.943Z,11.07
2018-03-15T14:21:43.255Z,11.07
2018-03-15T14:24:12.650Z,9.70
2018-03-15T14:26:41.826Z,11.10
2018-03-15T14:29:11.209Z,10.67
2018-03-15T14:31:40.572Z,9.67
2018-03-15T14:34:09.857Z,12.93
2018-03-15T14:36:38.922Z,9.60
2018-03-15T14:39:08.065Z,10.80
2018-03-15T14:41:37.535Z,12.83
2018-03-15T14:44:06.617Z,11.03
2018-03-15T14:46:35.776Z,11.90
2018-03-15T14:49:04.863Z,12.87
2018-03-15T14:51:34.412Z,16.30
2018-03-15T14:54:03.721Z,13.57
2018-03-15T14:56:32.912Z,13.07
2018-03-15T14:59:02.473Z,12.73
2018-03-15T15:01:31.654Z,13.03
2018-03-15T15:04:01.108Z,13.57
2018-03-15T15:06:30.425Z,13.10
2018-03-15T15:08:59.732Z,13.90
2018-03-15T15:11:29.153Z,11.93
2018-03-15T15:13:58.145Z,16.47
2018-03-15T15:16:27.561Z,13.47
2018-03-15T15:18:56.876Z,14.80
2018-03-15T15:21:26.466Z,15.73
2018-03-15T15:23:55.770Z,14.03
2018-03-15T15:26:25.234Z,16.53
2018-03-15T15:28:54.802Z,14.63
2018-03-15T15:31:24.210Z,23.97
2018-03-15T15:33:53.637Z,20.07
2018-03-15T15:36:23.057Z,17.70
2018-03-15T15:38:52.499Z,14.80
2018-03-15T15:41:21.801Z,14.03
2018-03-15T15:43:51.053Z,11.93
2018-03-15T15:46:20.361Z,10.63
2018-03-15T15:48:49.434Z,11.03
2018-03-15T15:51:18.714Z,11.40
2018-03-15T15:53:47.651Z,10.33
2018-03-15T15:56:16.856Z,9.77
2018-03-15T15:58:45.946Z,10.87
2018-03-15T16:01:15.068Z,12.20
2018-03-15T16:03:44.381Z,11.73
2018-03-15T16:06:13.641Z,12.57
2018-03-15T16:08:43.103Z,16.57
2018-03-15T16:11:12.466Z,16.50
2018-03-15T16:13:41.985Z,14.33
2018-03-15T16:16:11.325Z,20.67
2018-03-15T16:18:41.868Z,18.40
2018-03-15T16:21:11.129Z,17.80
2018-03-15T16:23:40.515Z,23.10
2018-03-15T16:26:09.693Z,26.10
2018-03-15T16:28:39.119Z,24.73
2018-03-15T16:31:09.023Z,18.03
2018-03-15T16:33:38.305Z,17.17
2018-03-15T16:36:07.517Z,19.40
2018-03-15T16:38:37.224Z,21.83
2018-03-15T16:41:06.556Z,21.63
2018-03-15T16:43:35.673Z,25.43
2018-03-15T16:46:04.676Z,26.77
2018-03-15T16:48:33.655Z,24.57
2018-03-15T16:51:02.937Z,28.90
2018-03-15T16:53:32.197Z,29.63
2018-03-15T16:56:01.352Z,25.97
2018-03-15T16:58:30.638Z,23.13
2018-03-15T17:01:00.657Z,25.30
2018-03-15T17:03:29.918Z,28.97
2018-03-15T17:05:58.978Z,28.13
2018-03-15T17:08:27.903Z,33.20
2018-03-15T17:10:57.021Z,36.47
2018-03-15T17:13:26.379Z,26.20
2018-03-15T17:15:55.745Z,24.93
2018-03-15T17:18:25.094Z,24.67
2018-03-15T17:20:54.201Z,27.57
2018-03-15T17:23:23.567Z,24.60
2018-03-15T17:25:52.661Z,35.43
2018-03-15T17:28:21.737Z,33.07
2018-03-15T17:30:50.956Z,36.80
2018-03-15T17:33:20.221Z,21.40
2018-03-15T17:35:49.341Z,24.77
2018-03-15T17:38:18.845Z,28.80
2018-03-15T17:40:48.086Z,30.07
2018-03-15T17:43:17.013Z,30.53
2018-03-15T17:45:46.093Z,38.00
2018-03-15T17:48:15.110Z,37.63
2018-03-15T17:50:44.415Z,124.47
2018-03-15T17:53:13.749Z,34.10
2018-03-15T17:55:42.999Z,24.60
2018-03-15T17:58:12.310Z,27.20
2018-03-15T18:00:41.614Z,38.50
2018-03-15T18:03:10.758Z,26.77
2018-03-15T18:05:39.987Z,26.80
2018-03-15T18:08:09.629Z,27.00
2018-03-15T18:10:38.563Z,28.27
2018-03-15T18:13:07.863Z,29.77
2018-03-15T18:15:37.031Z,25.27
2018-03-15T18:18:06.141Z,24.50
2018-03-15T18:20:35.327Z,24.87
2018-03-15T18:23:04.629Z,25.07
2018-03-15T18:25:33.874Z,28.20
2018-03-15T18:28:02.989Z,25.53
2018-03-15T18:30:32.403Z,64.00
2018-03-15T18:33:01.385Z,36.40
2018-03-15T18:35:30.576Z,47.43
2018-03-15T18:37:59.909Z,45.33
2018-03-15T18:40:29.239Z,47.17
2018-03-15T18:42:58.205Z,51.73
2018-03-15T18:45:27.429Z,53.20
2018-03-15T18:47:56.668Z,46.90
2018-03-15T18:50:25.981Z,45.80
2018-03-15T18:52:54.997Z,41.80
2018-03-15T18:55:23.950Z,47.30
2018-03-15T18:57:53.291Z,48.70
2018-03-15T19:00:22.899Z,50.97
2018-03-15T19:02:51.887Z,57.03
2018-03-15T19:05:21.353Z,50.10
2018-03-15T19:07:50.719Z,52.37
2018-03-15T19:10:19.885Z,51.13
2018-03-15T19:12:48.895Z,64.30
2018-03-15T19:15:18.839Z,49.10
2018-03-15T19:17:47.952Z,57.57
2018-03-15T19:20:17.071Z,49.53
2018-03-15T19:22:46.370Z,50.63
2018-03-15T19:25:15.582Z,44.67
2018-03-15T19:27:44.672Z,42.63
2018-03-15T19:30:14.083Z,39.67
2018-03-15T19:32:43.327Z,39.33
2018-03-15T19:35:12.704Z,48.77
2018-03-15T19:37:41.982Z,61.50
2018-03-15T19:40:10.961Z,54.17
2018-03-15T19:42:40.163Z,55.40
2018-03-15T19:45:09.248Z,57.90
2018-03-15T19:47:38.650Z,49.73
2018-03-15T19:50:07.939Z,43.30
2018-03-15T19:52:37.055Z,50.30
2018-03-15T19:55:06.449Z,44.63
2018-03-15T19:57:35.977Z,48.83
2018-03-15T20:00:05.302Z,117.50
2018-03-15T20:02:34.557Z,58.57
2018-03-15T20:05:03.857Z,58.27
2018-03-15T20:07:33.426Z,63.60
2018-03-15T20:10:02.669Z,58.23
2018-03-15T20:12:31.965Z,68.00
2018-03-15T20:15:01.415Z,98.80
2018-03-15T20:17:30.574Z,141.80
2018-03-15T20:20:00.249Z,138.90
2018-03-15T20:22:35.383Z,125.13
2018-03-15T20:25:05.289Z,118.23
2018-03-15T20:27:39.805Z,91.10
2018-03-15T20:30:09.194Z,83.00
2018-03-15T20:32:44.248Z,89.90
2018-03-15T20:35:13.598Z,144.67
2018-03-15T20:37:43.102Z,99.00
2018-03-15T20:40:18.123Z,92.43
2018-03-15T20:42:47.229Z,102.53
2018-03-15T20:45:22.157Z,86.97
2018-03-15T20:47:56.889Z,88.67
2018-03-15T20:50:26.407Z,91.73
2018-03-15T20:52:55.909Z,103.57
2018-03-15T20:55:25.557Z,110.17
2018-03-15T20:57:55.023Z,116.70
2018-03-15T21:00:24.318Z,104.43
2018-03-15T21:02:53.658Z,87.23
2018-03-15T21:05:22.841Z,83.50
2018-03-15T21:07:52.062Z,74.00
2018-03-15T21:10:21.217Z,74.83
2018-03-15T21:12:50.621Z,79.03
2018-03-15T21:15:19.918Z,69.17
2018-03-15T21:17:48.863Z,54.63
2018-03-15T21:20:18.267Z,67.43
2018-03-15T21:22:47.417Z,63.60
2018-03-15T21:25:16.609Z,63.17
2018-03-15T21:27:45.919Z,65.83
2018-03-15T21:30:15.325Z,65.43
2018-03-15T21:32:44.657Z,86.37
2018-03-15T21:35:13.926Z,88.27
2018-03-15T21:37:43.321Z,97.70
2018-03-15T21:40:12.416Z,164.13
2018-03-15T21:42:41.723Z,89.67
2018-03-15T21:45:11.023Z,78.47
2018-03-15T21:47:40.321Z,73.23
2018-03-15T21:50:09.617Z,66.40
2018-03-15T21:52:39.752Z,65.90
2018-03-15T21:55:08.937Z,69.67
2018-03-15T21:57:38.397Z,83.13
2018-03-15T22:00:07.639Z,96.00
2018-03-15T22:02:37.118Z,100.00
2018-03-15T22:05:06.341Z,81.17
2018-03-15T22:07:35.767Z,86.73
2018-03-15T22:10:05.301Z,90.70
2018-03-15T22:12:34.739Z,81.63
2018-03-15T22:15:03.885Z,79.50
2018-03-15T22:17:33.089Z,78.33
2018-03-15T22:20:03.577Z,84.67
2018-03-15T22:22:32.891Z,90.87
2018-03-15T22:25:04.848Z,90.37
2018-03-15T22:27:39.170Z,92.60
2018-03-15T22:30:08.325Z,96.07
2018-03-15T22:32:37.778Z,89.23
2018-03-15T22:35:07.440Z,93.17
2018-03-15T22:37:37.185Z,89.07
2018-03-15T22:40:06.793Z,86.47
2018-03-15T22:42:36.601Z,74.97
2018-03-15T22:45:06.010Z,66.07
2018-03-15T22:47:35.263Z,71.80
2018-03-15T22:50:04.814Z,85.03
2018-03-15T22:52:34.179Z,73.27
2018-03-15T22:55:03.892Z,56.57
2018-03-15T22:57:36.364Z,53.45
2018-03-15T23:00:06.570Z,62.30
2018-03-15T23:02:35.546Z,69.20
2018-03-15T23:05:04.980Z,80.80
2018-03-15T23:07:34.570Z,83.10
2018-03-15T23:10:04.177Z,78.75
2018-03-15T23:12:33.650Z,75.87
2018-03-15T23:15:02.941Z,71.57
2018-03-15T23:17:31.991Z,71.30
2018-03-15T23:20:01.165Z,72.57
2018-03-15T23:22:30.551Z,65.20
2018-03-15T23:24:59.645Z,76.13
2018-03-15T23:27:29.241Z,69.62
2018-03-15T23:29:58.285Z,72.77
2018-03-15T23:32:27.537Z,76.17
2018-03-15T23:34:56.847Z,84.80
2018-03-15T23:37:26.076Z,74.93
2018-03-15T23:39:55.089Z,78.12
2018-03-15T23:42:24.451Z,70.25
2018-03-15T23:44:53.633Z,83.50
2018-03-15T23:47:22.839Z,76.75
2018-03-15T23:49:52.267Z,77.22
2018-03-15T23:52:21.732Z,99.97
2018-03-15T23:54:50.840Z,89.90
2018-03-15T23:57:20.047Z,86.87
2018-03-15T23:59:49.297Z,99.03
